Terminal Aerodrome Forecast
Issued by NWS Cleveland, OH

Home | Current Version | Previous Version | Text Only | Print | Product List | Glossary Off
Versions: 1 2 3 4 5 6 7 8 9 10 11 12 13 14 15 16 17 18 19 20 21 22 23

000
FTUS41 KCLE 211000 AAA
TAFCAK
TAF AMD
KCAK 211009Z 2110/2206 25004KT 6SM BR SCT015 BKN150
      TEMPO 2111/2113 2SM BR BKN015
     FM211400 24005KT P6SM BKN035
     FM212000 23005KT P6SM VCTS SCT035CB BKN100
      TEMPO 2121/2201 2SM TSRA BR SCT015 OVC025CB=

USA.gov is the U.S. government's official web portal to all federal, state and local government web resources and services.